EDT,Max TemperatureF,Mean TemperatureF,Min TemperatureF,Max Dew PointF,MeanDew PointF,Min DewpointF,Max Humidity, Mean Humidity, Min Humidity, Max Sea Level PressureIn, Mean Sea Level PressureIn, Min Sea Level PressureIn, Max VisibilityMiles, Mean VisibilityMiles, Min VisibilityMiles, Max Wind SpeedMPH, Mean Wind SpeedMPH, Max Gust SpeedMPH,PrecipitationIn, CloudCover, Events, WindDirDegrees
2013-8-1,86,77,68,72,70,66,93,77,61,30.02,29.93,29.84,10,8,3,12,4,14,T,6,Rain-Thunderstorm,219
2013-8-2,87,76,65,71,66,62,93,69,45,30.01,29.97,29.91,10,10,6,9,3,,0.00,0,,246
2013-8-3,89,79,69,75,70,67,97,74,50,30.00,29.96,29.90,10,9,4,12,2,16,0.00,2,Thunderstorm,247
2013-8-4,86,77,67,71,65,57,93,67,40,30.03,29.96,29.90,10,10,10,17,5,22,T,4,,356
2013-8-5,81,73,65,67,63,60,93,74,54,30.10,30.04,30.00,10,10,10,12,3,15,0.00,6,,86
2013-8-6,83,75,67,71,66,62,90,76,62,30.06,30.02,29.98,10,10,10,16,6,23,0.00,6,,210
2013-8-7,85,77,68,70,68,66,90,75,59,30.11,30.05,30.02,10,10,5,13,3,17,0.00,4,,203
2013-8-8,86,79,72,72,70,69,93,77,61,30.06,30.03,29.99,10,10,8,10,3,20,0.00,4,,214
2013-8-9,93,83,73,75,72,70,93,73,52,30.05,29.99,29.94,10,10,7,17,7,23,0.00,1,,226
2013-8-10,93,83,73,74,72,71,93,73,52,30.07,30.04,30.00,10,10,7,15,5,18,0.04,2,Rain,240
2013-8-11,89,80,71,76,72,69,100,81,61,30.14,30.08,30.01,10,6,0,17,2,23,0.41,4,Fog-Rain-Thunderstorm,258
2013-8-12,91,81,70,74,71,67,100,74,47,30.08,30.01,29.94,10,6,0,17,3,21,0.96,3,Fog-Rain-Thunderstorm,274
2013-8-13,88,80,71,74,71,69,100,80,59,29.92,29.84,29.78,10,9,2,18,6,25,0.10,4,Rain-Thunderstorm,245
2013-8-14,78,70,62,67,60,54,93,70,46,30.10,29.97,29.83,10,10,9,14,5,17,0.00,3,,351
2013-8-15,77,68,58,61,56,52,93,68,43,30.17,30.13,30.09,10,10,8,14,3,16,0.00,0,,51
2013-8-16,73,65,56,60,57,54,93,75,57,30.19,30.15,30.11,10,10,7,7,1,14,0.00,1,,62
2013-8-17,70,65,59,66,61,57,93,86,78,30.23,30.18,30.15,10,8,2,13,6,17,1.32,7,Rain,37
2013-8-18,73,70,66,65,64,63,93,86,79,30.24,30.19,30.12,10,7,2,12,5,13,0.31,8,Rain,29
2013-8-19,77,71,65,70,67,64,93,86,79,30.21,30.15,30.09,10,9,1,9,1,13,0.24,5,Rain,215
2013-8-20,83,74,65,71,68,64,100,83,65,30.21,30.15,30.11,10,6,0,6,1,8,0.00,3,Fog,207
2013-8-21,84,77,69,74,69,66,97,81,65,30.24,30.18,30.09,10,6,0,8,2,12,0.07,4,Fog-Rain,213
2013-8-22,89,81,72,74,71,68,100,77,53,30.16,30.09,29.99,10,8,0,10,4,13,0.00,3,Fog-Thunderstorm,251
2013-8-23,85,76,67,71,67,61,93,77,61,30.11,30.01,29.94,10,9,2,22,6,31,0.19,4,Rain-Thunderstorm,343
2013-8-24,83,72,60,62,60,57,97,70,43,30.31,30.22,30.12,10,10,7,16,5,25,0.00,1,,39
2013-8-25,80,69,58,63,59,56,97,73,48,30.40,30.34,30.29,10,10,8,10,2,13,0.00,1,,68
2013-8-26,84,69,54,63,57,52,100,73,45,30.32,30.25,30.10,10,6,0,7,2,,0.00,1,Fog,210
2013-8-27,89,76,63,75,67,61,94,73,52,30.09,30.01,29.95,10,9,4,10,5,,0.00,1,,263
2013-8-28,84,77,69,75,70,66,97,83,69,29.99,29.93,29.84,9,5,2,13,5,22,0.01,1,Rain,224
2013-8-29,86,79,71,72,71,69,87,74,61,30.05,29.94,29.83,10,9,6,15,6,17,0.00,4,,33
2013-8-30,86,76,66,70,67,64,97,76,55,30.10,30.03,29.93,10,7,1,8,2,,0.00,3,,194
2013-8-31,88,78,67,73,68,65,90,75,59,29.94,29.90,29.84,10,10,9,16,6,28,0.01,2,Thunderstorm,220